Latest Weather Observations for Goulburn Airport

IDN60801

Issued at 12:23 pm EST Wednesday 21 April 2021 (issued every 10 minutes, with the page automatically refreshed every 10 minutes)

About weather observations | Map of weather stations | Latest weather observations for NSW | Other Formats
Station Details ID: 070330 Name: GOULBURN AIRPORT AWS Lat: -34.81 Lon: 149.73 Height: 640.0 m
Data from the previous 72 hours. | See also: Recent months at Goulburn Airport
Date/Time
EST
Temp
°C
App
Temp
°C
Dew
Point
°C
Rel
Hum
%
Delta-T
°C
Wind Press
QNH
hPa
Press
MSL
hPa
Rain since
9am
mm
Dir  Spd
km/h
Gust
km/h
Spd
kts
Gust
kts
21/12:00pm 12.0 7.3 1.1 47 4.8 SW 15 26 8 14 1015.3 1014.3 0.0
21/11:30am 12.1 7.8 3.1 54 4.1 WSW 15 26 8 14 1015.6 1014.7 0.0
21/11:00am 11.3 6.7 1.8 52 4.2 SW 15 24 8 13 1015.6 1014.7 0.0
21/10:30am 10.7 5.4 1.8 54 3.9 SW 19 24 10 13 1015.5 1014.6 0.0
21/10:00am 10.2 5.9 3.0 61 3.2 W 15 22 8 12 1015.4 1014.5 0.0
21/09:30am 9.2 4.3 2.3 62 3.0 W 17 24 9 13 1015.3 1014.3 0.0
21/09:00am 8.5 3.6 1.9 63 2.8 WNW 17 24 9 13 1015.2 1014.2 1.4
21/08:30am 8.0 3.7 3.3 72 2.1 WSW 15 19 8 10 1014.9 1013.9 1.4
21/08:00am 6.9 3.0 3.5 79 1.5 WSW 13 17 7 9 1014.5 1013.6 1.4
21/07:30am 6.0 2.8 3.3 83 1.2 WSW 9 15 5 8 1014.2 1013.3 1.4
21/07:00am 5.0 2.2 3.3 89 0.7 W 7 11 4 6 1013.6 1012.6 1.4
21/06:30am 3.8 1.2 3.4 97 0.2 WNW 6 9 3 5 1013.3 1012.3 1.4
21/06:00am 3.4 0.1 2.7 95 0.3 WSW 9 11 5 6 1012.7 1011.8 1.4
21/05:30am 4.4 0.9 3.5 94 0.4 W 11 15 6 8 1012.5 1011.5 1.4
21/05:00am 5.9 1.6 5.3 96 0.3 W 17 22 9 12 1012.1 1011.1 1.4
21/04:30am 6.0 2.1 5.4 96 0.3 W 15 20 8 11 1011.8 1010.8 1.4
21/04:00am 6.4 1.8 5.8 96 0.3 WNW 19 26 10 14 1011.3 1010.4 1.4
21/03:30am 6.9 2.2 6.2 95 0.3 WNW 20 30 11 16 1010.9 1009.9 1.4
21/03:00am 6.9 2.8 6.2 95 0.3 WNW 17 20 9 11 1010.7 1009.7 1.4
21/02:30am 7.5 3.5 6.8 95 0.3 WNW 17 20 9 11 1010.7 1009.7 1.4
21/02:00am 7.8 5.1 7.4 97 0.2 NW 11 15 6 8 1010.6 1009.6 1.4
21/01:30am 8.3 5.3 7.7 96 0.3 NW 13 17 7 9 1010.6 1009.6 1.4
21/01:00am 8.4 5.5 8.0 97 0.2 NW 13 17 7 9 1011.1 1010.1 1.2
21/12:30am 8.6 7.8 8.0 96 0.3 NW 2 6 1 3 1011.1 1010.1 1.2
21/12:00am 8.4 6.6 7.8 96 0.3 NW 7 9 4 5 1011.4 1010.5 1.2
 
Date/Time
EST
Temp
°C
App
Temp
°C
Dew
Point
°C
Rel
Hum
%
Delta-T
°C
Wind Press
QNH
hPa
Press
MSL
hPa
Rain since
9am
mm
Dir  Spd
km/h
Gust
km/h
Spd
kts
Gust
kts
20/11:30pm 8.1 6.3 7.8 98 0.1 NW 7 11 4 6 1011.4 1010.5 1.2
20/11:00pm 7.7 5.4 7.4 98 0.1 WNW 9 13 5 7 1011.4 1010.5 1.2
20/10:30pm 7.1 4.6 6.7 97 0.2 NNE 9 13 5 7 1011.0 1010.0 1.0
20/10:00pm 7.9 5.8 6.5 91 0.7 WNW 7 9 4 5 1011.9 1010.9 1.0
20/09:30pm 9.2 4.5 7.6 90 0.8 W 22 44 12 24 1012.3 1011.3 1.0
20/09:18pm 10.4 5.6 7.3 81 1.5 WNW 22 67 12 36 1012.8 1011.9 0.2
20/09:00pm 11.0 6.9 6.2 72 2.3 NW 17 20 9 11 1010.9 1009.9 0.0
20/08:30pm 11.4 6.8 5.5 67 2.8 NW 19 24 10 13 1011.4 1010.5 0.0
20/08:00pm 11.4 7.0 4.6 63 3.2 NW 17 22 9 12 1011.2 1010.2 0.0
20/07:30pm 11.4 7.1 5.1 65 3.0 NW 17 20 9 11 1011.2 1010.2 0.0
20/07:00pm 10.5 6.5 5.1 69 2.6 NW 15 17 8 9 1011.6 1010.6 0.0
20/06:30pm 11.0 7.0 4.7 65 3.0 NW 15 17 8 9 1011.8 1010.8 0.0
20/06:00pm 12.0 7.6 4.7 61 3.5 NW 17 20 9 11 1011.6 1010.6 0.0
20/05:30pm 13.1 8.7 4.8 57 4.0 NW 17 24 9 13 1011.4 1010.5 0.0
20/05:00pm 14.6 9.7 4.9 52 4.7 WNW 20 26 11 14 1011.4 1010.5 0.0
20/04:30pm 15.6 8.7 4.6 48 5.3 WNW 30 43 16 23 1011.4 1010.5 0.0
20/04:00pm 16.7 9.8 4.4 44 6.0 WNW 30 39 16 21 1011.3 1010.4 0.0
20/03:30pm 17.4 10.7 5.4 45 6.0 WNW 30 44 16 24 1011.8 1010.8 0.0
20/03:00pm 16.4 9.1 4.4 45 5.8 WNW 32 48 17 26 1011.9 1010.9 0.0
20/02:55pm 17.6 11.1 4.6 42 6.4 WNW 28 48 15 26 1011.9 1010.9 0.0
20/02:30pm 15.6 7.6 4.0 46 5.6 WNW 35 46 19 25 1011.9 1010.9 0.0
20/02:00pm 17.7 10.3 5.0 43 6.3 WNW 33 50 18 27 1011.9 1010.9 0.0
20/01:57pm 17.6 10.4 4.9 43 6.3 WNW 32 50 17 27 1012.0 1011.0 0.0
20/01:30pm 16.7 9.8 4.7 45 5.9 WNW 30 41 16 22 1012.3 1011.3 0.0
20/01:09pm 17.3 10.2 5.3 45 6.0 WNW 32 50 17 27 1012.7 1011.8 0.0
20/01:00pm 17.0 9.6 5.0 45 5.9 WNW 33 46 18 25 1012.8 1011.9 0.0
20/12:30pm 17.0 9.7 4.7 44 6.0 WNW 32 46 17 25 1013.6 1012.6 0.0
20/12:06pm 16.9 10.0 4.6 44 6.0 WNW 30 50 16 27 1014.0 1013.1 0.0
20/12:00pm 16.8 9.6 4.8 45 5.9 WNW 32 43 17 23 1014.0 1013.1 0.0
20/11:30am 17.0 9.4 5.9 48 5.6 WNW 35 46 19 25 1014.9 1013.9 0.0
20/11:01am 16.1 8.8 4.5 46 5.6 W 32 52 17 28 1015.2 1014.2 0.0
20/11:00am 15.8 8.4 4.2 46 5.6 W 32 44 17 24 1015.3 1014.3 0.0
20/10:30am 15.7 8.1 3.8 45 5.7 WNW 33 50 18 27 1015.7 1014.8 0.0
20/10:27am 16.0 9.1 4.7 47 5.5 WNW 30 48 16 26 1015.7 1014.8 0.0
20/10:00am 15.0 7.8 5.2 52 4.8 WNW 32 44 17 24 1015.8 1014.9 0.0
20/09:30am 13.6 6.6 6.0 60 3.7 WNW 32 44 17 24 1015.9 1015.0 0.0
20/09:26am 14.1 7.5 6.0 58 4.0 WNW 30 44 16 24 1015.8 1014.9 0.0
20/09:00am 12.8 8.7 7.7 71 2.6 NW 19 26 10 14 1016.1 1015.2 0.2
20/08:30am 11.0 7.4 6.7 75 2.1 WNW 15 19 8 10 1016.3 1015.4 0.2
20/08:00am 9.4 6.1 6.3 81 1.5 WNW 13 19 7 10 1016.2 1015.3 0.2
20/07:30am 7.5 4.1 5.8 89 0.8 WNW 13 17 7 9 1016.1 1015.2 0.2
20/07:00am 6.0 2.0 4.8 92 0.5 NW 15 19 8 10 1015.7 1014.8 0.2
20/06:30am 5.0 1.0 4.9 99 0.0 WNW 15 17 8 9 1015.8 1014.9 0.2
20/06:00am 3.2 -0.4 2.9 98 0.1 NW 11 13 6 7 1015.6 1014.7 0.2
20/05:30am 1.7 -0.6 0.1 89 0.6 NW 2 6 1 3 1015.5 1014.6 0.2
20/05:00am 4.8 1.0 3.8 93 0.4 WNW 13 15 7 8 1015.5 1014.6 0.2
20/04:30am 5.3 0.9 4.6 95 0.3 WNW 17 19 9 10 1015.7 1014.8 0.2
20/04:00am 5.0 0.9 4.1 94 0.4 NW 15 17 8 9 1015.7 1014.8 0.2
20/03:30am 5.0 0.8 4.0 93 0.4 NW 15 19 8 10 1015.6 1014.7 0.2
20/03:00am 5.0 1.3 4.6 97 0.2 NW 13 17 7 9 1015.7 1014.8 0.2
20/02:30am 4.7 1.3 4.1 96 0.3 NW 11 15 6 8 1015.9 1015.0 0.2
20/02:00am 5.3 1.2 4.3 93 0.4 NW 15 17 8 9 1016.1 1015.2 0.2
20/01:30am 4.9 1.6 4.6 98 0.1 NW 11 15 6 8 1016.6 1015.6 0.2
20/01:00am 5.1 1.8 4.8 98 0.1 NW 11 15 6 8 1016.7 1015.7 0.2
20/12:30am 3.9 2.4 2.9 93 0.4 CALM 0 6 0 3 1016.8 1015.9 0.2
20/12:00am 5.6 1.9 4.2 91 0.6 NNW 13 13 7 7 1016.8 1015.9 0.2
 
Date/Time
EST
Temp
°C
App
Temp
°C
Dew
Point
°C
Rel
Hum
%
Delta-T
°C
Wind Press
QNH
hPa
Press
MSL
hPa
Rain since
9am
mm
Dir  Spd
km/h
Gust
km/h
Spd
kts
Gust
kts
19/11:30pm 6.1 2.8 4.4 89 0.8 NNW 11 13 6 7 1016.9 1016.0 0.2
19/11:00pm 6.2 3.3 4.7 90 0.7 NW 9 11 5 6 1017.0 1016.1 0.2
19/10:30pm 7.3 4.7 5.9 91 0.7 NW 9 9 5 5 1017.2 1016.3 0.2
19/10:00pm 5.3 2.6 3.5 88 0.8 NNW 7 9 4 5 1017.3 1016.4 0.2
19/09:30pm 7.8 4.6 5.1 83 1.2 NW 11 13 6 7 1017.5 1016.6 0.2
19/09:00pm 8.1 5.0 5.6 84 1.2 NNW 11 13 6 7 1017.5 1016.6 0.2
19/08:30pm 8.5 5.1 5.8 83 1.3 NW 13 13 7 7 1017.5 1016.6 0.2
19/08:00pm 7.9 5.3 6.0 88 0.9 NW 9 11 5 6 1017.4 1016.5 0.2
19/07:30pm 7.3 6.1 4.8 84 1.1 CALM 0 6 0 3 1017.5 1016.6 0.2
19/07:00pm 8.5 6.0 4.7 77 1.7 NW 7 9 4 5 1017.4 1016.5 0.2
19/06:30pm 9.5 6.8 5.5 76 1.9 W 9 11 5 6 1017.3 1016.4 0.2
19/06:00pm 9.9 6.3 5.1 72 2.3 W 13 17 7 9 1017.0 1016.1 0.2
19/05:30pm 13.0 10.3 5.7 61 3.6 W 9 13 5 7 1016.7 1015.7 0.2
19/05:00pm 15.3 11.2 6.3 55 4.5 W 17 24 9 13 1016.4 1015.5 0.2
19/04:30pm 15.2 11.1 6.2 55 4.5 WNW 17 20 9 11 1016.2 1015.3 0.2
19/04:00pm 15.7 10.8 5.0 49 5.2 WNW 20 26 11 14 1016.1 1015.2 0.2
19/03:30pm 17.7 12.1 5.6 45 6.1 WNW 24 30 13 16 1016.0 1015.1 0.2
19/03:00pm 17.6 11.4 4.2 41 6.5 W 26 33 14 18 1016.1 1015.2 0.2
19/02:30pm 18.0 12.7 5.2 43 6.4 WNW 22 33 12 18 1016.2 1015.3 0.2
19/02:00pm 18.0 13.1 3.9 39 6.9 WNW 19 28 10 15 1016.3 1015.4 0.2
19/01:30pm 17.8 13.0 5.7 45 6.1 W 20 30 11 16 1016.4 1015.5 0.0
19/01:00pm 17.4 11.7 5.0 44 6.1 WNW 24 35 13 19 1016.8 1015.9 0.0
19/12:30pm 16.7 10.8 3.7 42 6.2 W 24 33 13 18 1017.4 1016.5 0.0
19/12:00pm 16.4 10.5 4.1 44 5.9 W 24 32 13 17 1018.0 1017.2 0.0
19/11:30am 15.8 10.3 4.2 46 5.6 W 22 30 12 16 1018.5 1017.6 0.0
19/11:00am 15.5 9.9 5.4 51 5.0 W 24 33 13 18 1018.8 1017.9 0.0
19/10:30am 14.9 9.9 6.5 57 4.2 WNW 22 30 12 16 1019.0 1018.1 0.0
19/10:00am 13.6 9.6 6.5 62 3.5 WNW 17 22 9 12 1019.1 1018.2 0.0
19/09:30am 11.5 7.7 5.8 68 2.8 NW 15 19 8 10 1019.4 1018.6 0.0
19/09:00am 9.3 7.1 6.2 81 1.5 NW 7 9 4 5 1019.7 1018.9 0.0
19/08:30am 6.9 4.2 5.7 92 0.6 N 9 11 5 6 1020.0 1019.1 0.0
19/08:00am 3.3 0.7 3.2 99 0.0 NNE 6 7 3 4 1020.2 1019.3 0.0
19/07:30am 0.2 -2.1 0.1 99 0.0 E 2 7 1 4 1020.0 1019.1 0.0
19/07:09am -1.0 -3.1 -1.1 99 0.0 CALM 0 0 0 0 1020.0 1019.1 0.0
19/07:00am -1.7 -3.9 -1.8 99 0.0 CALM 0 0 0 0 1019.9 1019.0 0.0
19/06:50am -2.5 -4.8 -2.6 99 -0.1 CALM 0 0 0 0 1019.9 1019.0 0.0
19/06:30am -2.5 -4.9 -2.8 98 0.0 CALM 0 0 0 0 1019.7 1018.9 0.0
19/06:00am -2.2 -4.5 -2.3 99 -0.1 CALM 0 0 0 0 1019.6 1018.8 0.0
19/05:30am -2.4 -4.7 -2.5 99 -0.1 CALM 0 0 0 0 1019.5 1018.7 0.0
19/05:00am -2.0 -4.3 -2.1 99 -0.1 CALM 0 0 0 0 1019.3 1018.4 0.0
19/04:30am -1.5 -3.7 -1.6 99 0.0 CALM 0 0 0 0 1019.3 1018.4 0.0
19/04:00am -1.1 -3.3 -1.2 99 0.0 CALM 0 0 0 0 1019.3 1018.4 0.0
19/03:40am -2.0 -5.0 -2.1 99 -0.1 E 4 7 2 4 1019.3 1018.4 0.0
19/03:30am -1.8 -4.0 -1.9 99 0.0 CALM 0 0 0 0 1019.4 1018.6 0.0
19/03:23am -1.8 -4.0 -1.9 99 0.0 CALM 0 0 0 0 1019.5 1018.7 0.0
19/03:00am -0.5 -2.6 -0.6 99 0.0 CALM 0 0 0 0 1019.5 1018.7 0.0
19/02:30am -0.5 -2.6 -0.6 99 0.0 CALM 0 0 0 0 1019.9 1019.0 0.0
19/02:00am -0.5 -2.6 -0.6 99 0.0 CALM 0 0 0 0 1020.0 1019.1 0.0
19/01:30am 0.4 -1.5 0.3 99 0.0 CALM 0 0 0 0 1020.3 1019.4 0.0
19/01:00am 0.4 -1.5 0.3 99 0.0 CALM 0 0 0 0 1020.3 1019.4 0.0
19/12:30am 0.3 -1.7 0.2 99 0.0 CALM 0 0 0 0 1020.4 1019.5 0.0
19/12:00am 1.0 -0.8 0.9 99 0.0 CALM 0 0 0 0 1020.4 1019.5 0.0
 
Date/Time
EST
Temp
°C
App
Temp
°C
Dew
Point
°C
Rel
Hum
%
Delta-T
°C
Wind Press
QNH
hPa
Press
MSL
hPa
Rain since
9am
mm
Dir  Spd
km/h
Gust
km/h
Spd
kts
Gust
kts
18/11:30pm 1.1 -0.8 0.8 98 0.1 CALM 0 0 0 0 1020.6 1019.7 0.0
18/11:00pm 1.4 -0.4 1.0 97 0.2 CALM 0 0 0 0 1020.7 1019.8 0.0
18/10:30pm 2.3 0.6 1.9 97 0.2 CALM 0 0 0 0 1021.0 1020.2 0.0
18/10:00pm 2.2 0.1 1.6 96 0.2 E 2 7 1 4 1021.1 1020.3 0.0
18/09:30pm 2.8 1.2 2.2 96 0.2 CALM 0 0 0 0 1021.2 1020.4 0.0
18/09:00pm 3.2 1.6 2.2 93 0.4 CALM 0 0 0 0 1021.0 1020.2 0.0
18/08:30pm 3.5 1.8 1.9 89 0.7 CALM 0 0 0 0 1020.8 1020.0 0.0
18/08:00pm 4.4 2.9 2.9 90 0.6 CALM 0 0 0 0 1020.8 1020.0 0.0
18/07:30pm 4.9 3.3 2.3 83 1.1 CALM 0 0 0 0 1020.8 1020.0 0.0
18/07:00pm 5.9 3.2 2.5 79 1.4 SSE 6 9 3 5 1020.6 1019.7 0.0
18/06:32pm 6.2 3.6 3.2 81 1.3 SSE 6 6 3 3 1020.3 1019.4 0.0
18/06:30pm 6.2 4.0 3.2 81 1.3 S 4 7 2 4 1020.3 1019.4 0.0
18/06:12pm 8.1 4.1 2.8 69 2.3 WNW 13 13 7 7 1020.0 1019.1 0.0
18/06:00pm 9.1 5.9 3.3 67 2.6 W 9 11 5 6 1019.7 1018.9 0.0
18/05:30pm 11.6 8.5 3.6 58 3.7 W 9 11 5 6 1019.5 1018.7 0.0
18/05:00pm 15.4 12.4 4.2 47 5.4 W 9 11 5 6 1019.3 1018.4 0.0
18/04:30pm 16.7 12.7 3.1 40 6.5 WSW 13 17 7 9 1019.4 1018.6 0.0
18/04:00pm 17.3 13.2 4.3 42 6.3 W 15 20 8 11 1019.4 1018.6 0.0
18/03:30pm 17.6 15.2 6.8 49 5.6 WNW 9 13 5 7 1019.4 1018.6 0.0
18/03:00pm 17.2 14.4 7.0 51 5.2 WNW 11 19 6 10 1019.5 1018.7 0.0
18/02:30pm 17.3 14.8 8.2 55 4.8 WNW 11 20 6 11 1019.9 1019.0 0.0
18/02:00pm 16.5 14.1 8.5 59 4.2 NW 11 15 6 8 1020.1 1019.2 0.0
18/01:30pm 15.8 13.4 8.5 62 3.8 WNW 11 19 6 10 1020.3 1019.4 0.0
18/01:00pm 16.1 14.6 9.3 64 3.6 W 7 13 4 7 1020.8 1020.0 0.0
18/12:30pm 14.4 12.6 9.4 72 2.7 W 9 11 5 6 1021.3 1020.5 0.0

Other formats

Comma delimited format used in spreadsheet applications
http://www.bom.gov.au/fwo/IDN60801/IDN60801.95716.axf

JavaScript Object Notation format (JSON) in row-major order
http://www.bom.gov.au/fwo/IDN60801/IDN60801.95716.json

Data quality

Most of these data are generated automatically and are frequently updated. Quality checks on data are not normally performed. It is possible for incorrect values to appear. Refer to information at About Latest Weather Observations and please check the disclaimer before using these data.